createdAt,value
2022-12-09T00:04:54.686Z,46.55
2022-12-09T00:09:58.511Z,44.08
2022-12-09T00:15:01.994Z,46.88
2022-12-09T00:20:08.765Z,44.90
2022-12-09T00:25:12.427Z,44.25
2022-12-09T00:30:16.134Z,45.72
2022-12-09T00:35:21.092Z,46.58
2022-12-09T00:40:24.988Z,48.90
2022-12-09T00:45:28.511Z,51.75
2022-12-09T00:50:34.397Z,51.10
2022-12-09T00:55:38.078Z,47.10
2022-12-09T01:00:41.945Z,44.00
2022-12-09T01:05:47.516Z,51.40
2022-12-09T01:10:50.932Z,52.28
2022-12-09T01:15:54.606Z,49.25
2022-12-09T01:21:00.483Z,45.83
2022-12-09T01:26:05.131Z,48.58
2022-12-09T01:31:10.166Z,49.38
2022-12-09T01:36:18.059Z,56.08
2022-12-09T01:41:23.301Z,52.67
2022-12-09T01:46:26.845Z,53.50
2022-12-09T01:51:32.866Z,57.70
2022-12-09T01:56:38.640Z,53.00
2022-12-09T02:01:47.157Z,51.53
2022-12-09T02:06:52.503Z,57.65
2022-12-09T02:12:10.832Z,49.63
2022-12-09T02:17:27.572Z,58.55
2022-12-09T02:22:41.562Z,50.38
2022-12-09T02:27:52.011Z,54.85
2022-12-09T02:33:15.565Z,46.70
2022-12-09T02:38:24.638Z,47.63
2022-12-09T02:43:34.371Z,48.47
2022-12-09T02:48:42.454Z,49.42
2022-12-09T02:53:54.089Z,45.78
2022-12-09T02:58:58.007Z,45.10
2022-12-09T03:04:04.869Z,45.10
2022-12-09T03:09:12.969Z,44.63
2022-12-09T03:14:20.800Z,46.13
2022-12-09T03:19:29.928Z,44.72
2022-12-09T03:24:39.577Z,46.63
2022-12-09T03:29:47.589Z,46.90
2022-12-09T03:34:55.248Z,48.92
2022-12-09T03:40:01.698Z,50.42
2022-12-09T03:45:09.367Z,46.00
2022-12-09T03:50:14.444Z,43.15
2022-12-09T03:55:26.005Z,42.58
2022-12-09T04:00:30.544Z,35.53
2022-12-09T04:05:34.435Z,41.60
2022-12-09T04:10:39.473Z,43.30
2022-12-09T04:15:43.159Z,42.35
2022-12-09T04:20:46.608Z,38.85
2022-12-09T04:25:51.791Z,38.42
2022-12-09T04:30:55.399Z,38.17
2022-12-09T04:36:05.693Z,40.95
2022-12-09T04:41:11.715Z,38.47
2022-12-09T04:46:17.068Z,37.72
2022-12-09T04:51:20.834Z,30.75
2022-12-09T04:56:25.805Z,33.90
2022-12-09T05:01:31.591Z,32.90
2022-12-09T05:06:35.419Z,31.38
2022-12-09T05:11:40.400Z,34.00
2022-12-09T05:16:44.094Z,43.65
2022-12-09T05:21:48.111Z,36.72
2022-12-09T05:26:53.708Z,37.90
2022-12-09T05:31:57.399Z,42.90
2022-12-09T05:37:01.224Z,39.60
2022-12-09T05:42:06.597Z,35.53
2022-12-09T05:47:10.617Z,39.25
2022-12-09T05:52:14.553Z,35.55
2022-12-09T05:57:19.866Z,32.70
2022-12-09T06:02:23.641Z,31.42
2022-12-09T06:07:27.792Z,35.80
2022-12-09T06:12:33.362Z,32.55
2022-12-09T06:17:37.293Z,40.47
2022-12-09T06:22:41.300Z,35.85
2022-12-09T06:27:46.237Z,32.08
2022-12-09T06:32:49.846Z,39.97
2022-12-09T06:37:54.178Z,37.50
2022-12-09T06:42:59.193Z,37.65
2022-12-09T06:48:02.726Z,39.65
2022-12-09T06:53:07.281Z,36.28
2022-12-09T06:58:12.818Z,49.35
2022-12-09T07:03:16.639Z,44.40
2022-12-09T07:08:20.785Z,40.30
2022-12-09T07:13:26.450Z,37.80
2022-12-09T07:18:30.135Z,43.92
2022-12-09T07:23:34.161Z,38.55
2022-12-09T07:28:42.697Z,49.38
2022-12-09T07:33:47.026Z,42.90
2022-12-09T07:38:56.530Z,45.72
2022-12-09T07:44:02.068Z,35.65
2022-12-09T07:49:07.416Z,45.55
2022-12-09T07:54:13.979Z,50.65
2022-12-09T07:59:19.744Z,56.35
2022-12-09T08:04:23.855Z,52.45
2022-12-09T08:09:28.290Z,52.50
2022-12-09T08:14:34.198Z,46.92
2022-12-09T08:19:38.017Z,52.17
2022-12-09T08:24:41.999Z,54.00
2022-12-09T08:29:48.134Z,46.20
2022-12-09T08:34:52.005Z,49.13
2022-12-09T08:39:56.049Z,45.35
2022-12-09T08:45:02.943Z,55.28
2022-12-09T08:50:08.810Z,54.10
2022-12-09T08:55:13.461Z,51.17
2022-12-09T09:00:20.370Z,60.13
2022-12-09T09:05:24.820Z,60.00
2022-12-09T09:10:30.332Z,54.67
2022-12-09T09:15:35.892Z,56.15
2022-12-09T09:20:39.641Z,51.25
2022-12-09T09:25:47.689Z,51.67
2022-12-09T09:31:01.712Z,48.50
2022-12-09T09:36:10.473Z,88.47
2022-12-09T09:41:39.536Z,40.47
2022-12-09T09:46:47.976Z,44.63
2022-12-09T09:51:52.029Z,51.35
2022-12-09T09:57:02.152Z,40.30
2022-12-09T10:02:18.486Z,44.70
2022-12-09T10:07:27.367Z,40.58
2022-12-09T10:12:41.754Z,42.65
2022-12-09T10:17:52.152Z,43.33
2022-12-09T10:23:01.308Z,35.80
2022-12-09T10:28:10.880Z,41.50
2022-12-09T10:33:19.058Z,40.88
2022-12-09T10:38:23.690Z,42.13
2022-12-09T10:43:37.552Z,43.97
2022-12-09T10:48:53.072Z,41.25
2022-12-09T10:54:00.932Z,43.45
2022-12-09T10:59:29.998Z,39.38
2022-12-09T11:04:37.795Z,39.70
2022-12-09T11:09:44.818Z,36.63
2022-12-09T11:14:55.521Z,37.63
2022-12-09T11:20:19.563Z,37.72
2022-12-09T11:25:27.345Z,35.03
2022-12-09T11:30:34.172Z,42.25
2022-12-09T11:35:53.109Z,35.50
2022-12-09T11:41:05.082Z,30.73
2022-12-09T11:46:23.065Z,34.83
2022-12-09T11:51:33.197Z,35.08
2022-12-09T11:56:40.330Z,28.45
2022-12-09T12:01:53.750Z,33.15
2022-12-09T12:07:04.624Z,37.42
2022-12-09T12:12:18.450Z,29.92
2022-12-09T12:17:28.170Z,33.42
2022-12-09T12:22:54.853Z,36.15
2022-12-09T12:28:17.833Z,32.33
2022-12-09T12:39:27.424Z,22.90
2022-12-09T12:44:59.305Z,39.97
2022-12-09T12:50:29.784Z,34.30
2022-12-09T12:55:48.978Z,35.87
2022-12-09T13:01:01.895Z,35.72
2022-12-09T13:06:10.149Z,35.75
2022-12-09T13:11:21.003Z,32.33
2022-12-09T13:16:29.139Z,28.98
2022-12-09T13:21:33.233Z,31.77
2022-12-09T13:26:50.840Z,30.52
2022-12-09T13:32:03.867Z,23.65
2022-12-09T13:37:55.272Z,26.42
2022-12-09T13:43:08.263Z,25.13
2022-12-09T13:48:41.815Z,28.77
2022-12-09T13:53:53.667Z,26.85
2022-12-09T13:59:40.264Z,29.80
2022-12-09T14:04:51.158Z,31.42
2022-12-09T14:09:57.030Z,31.10
2022-12-09T14:15:03.188Z,27.25
2022-12-09T14:20:19.271Z,37.42
2022-12-09T14:25:56.224Z,52.20
2022-12-09T14:31:08.044Z,31.67
2022-12-09T14:36:27.984Z,39.90
2022-12-09T14:41:35.981Z,38.72
2022-12-09T14:46:43.379Z,34.97
2022-12-09T14:51:51.042Z,32.78
2022-12-09T14:56:58.300Z,30.23
2022-12-09T15:02:17.187Z,33.92
2022-12-09T15:07:22.846Z,36.92
2022-12-09T15:12:31.433Z,33.90
2022-12-09T15:17:43.381Z,35.17
2022-12-09T15:22:53.011Z,36.58
2022-12-09T15:28:00.000Z,37.90
2022-12-09T15:33:15.221Z,44.42
2022-12-09T15:38:19.391Z,35.55
2022-12-09T15:43:23.079Z,33.30
2022-12-09T15:48:33.094Z,45.63
2022-12-09T15:53:42.746Z,34.13
2022-12-09T15:58:49.610Z,39.72
2022-12-09T16:03:57.162Z,41.15
2022-12-09T16:09:01.834Z,37.22
2022-12-09T16:14:06.118Z,35.53
2022-12-09T16:30:21.647Z,37.15
2022-12-09T16:35:27.586Z,31.13
2022-12-09T16:41:02.282Z,86.60
2022-12-09T16:46:40.506Z,38.30
2022-12-09T16:51:44.193Z,39.33
2022-12-09T16:56:51.445Z,38.85
2022-12-09T17:01:55.553Z,37.83
2022-12-09T17:06:59.375Z,37.35
2022-12-09T17:12:04.677Z,38.03
2022-12-09T17:17:08.583Z,46.33
2022-12-09T17:22:12.635Z,35.30
2022-12-09T17:27:18.133Z,42.88
2022-12-09T17:32:21.723Z,36.25
2022-12-09T17:37:25.399Z,36.55
2022-12-09T17:42:30.553Z,44.33
2022-12-09T17:47:34.319Z,40.33
2022-12-09T17:52:38.034Z,42.20
2022-12-09T17:57:42.959Z,38.15
2022-12-09T18:02:46.629Z,43.00
2022-12-09T18:07:50.536Z,43.35
2022-12-09T18:12:55.737Z,45.10
2022-12-09T18:17:59.632Z,47.92
2022-12-09T18:23:03.173Z,37.83
2022-12-09T18:28:09.271Z,45.83
2022-12-09T18:33:13.158Z,53.58
2022-12-09T18:38:17.065Z,43.25
2022-12-09T18:43:22.269Z,44.50
2022-12-09T18:48:25.959Z,40.20
2022-12-09T18:53:29.960Z,44.72
2022-12-09T18:58:57.863Z,52.35
2022-12-09T19:04:01.487Z,51.25
2022-12-09T19:09:07.088Z,50.70
2022-12-09T19:14:12.637Z,48.53
2022-12-09T19:19:18.379Z,49.88
2022-12-09T19:24:24.090Z,53.30
2022-12-09T19:29:29.399Z,54.20
2022-12-09T19:34:33.782Z,47.75
2022-12-09T19:39:37.920Z,55.67
2022-12-09T19:45:00.847Z,53.63
2022-12-09T19:50:07.397Z,49.58
2022-12-09T19:55:11.481Z,55.88
2022-12-09T20:00:18.363Z,48.22
2022-12-09T20:05:22.195Z,51.65
2022-12-09T20:10:25.940Z,50.90
2022-12-09T20:15:30.747Z,53.60
2022-12-09T20:20:34.753Z,99.65
2022-12-09T20:25:38.645Z,124.40
2022-12-09T20:30:43.812Z,75.13
2022-12-09T20:35:47.398Z,61.60
2022-12-09T20:40:51.157Z,56.10
2022-12-09T20:45:56.048Z,55.78
2022-12-09T20:50:59.732Z,57.80
2022-12-09T20:56:05.260Z,60.30
2022-12-09T21:01:12.746Z,54.88
2022-12-09T21:06:18.296Z,57.08
2022-12-09T21:11:23.916Z,56.38
2022-12-09T21:16:31.540Z,57.22
2022-12-09T21:21:37.515Z,60.60
2022-12-09T21:26:41.659Z,54.28
2022-12-09T21:31:48.442Z,55.25
2022-12-09T21:36:52.835Z,55.80
2022-12-09T21:41:56.335Z,51.13
2022-12-09T21:47:01.354Z,50.45
2022-12-09T21:52:06.626Z,78.03
2022-12-09T21:57:10.151Z,58.10
2022-12-09T22:02:15.094Z,55.30
2022-12-09T22:07:18.945Z,61.03
2022-12-09T22:12:22.585Z,57.25
2022-12-09T22:17:27.609Z,65.85
2022-12-09T22:22:31.807Z,60.58
2022-12-09T22:27:36.179Z,68.10
2022-12-09T22:32:43.496Z,54.78
2022-12-09T22:37:49.606Z,59.22
2022-12-09T22:42:53.305Z,60.83
2022-12-09T22:47:58.266Z,58.08
2022-12-09T22:53:01.914Z,62.92
2022-12-09T22:58:05.651Z,63.65
2022-12-09T23:03:10.931Z,54.80
2022-12-09T23:08:14.732Z,52.08
2022-12-09T23:13:18.352Z,59.55
2022-12-09T23:18:23.309Z,60.42
2022-12-09T23:23:26.962Z,57.78
2022-12-09T23:28:30.502Z,62.95
2022-12-09T23:33:36.085Z,57.45
2022-12-09T23:38:39.885Z,63.95
2022-12-09T23:43:43.428Z,56.33
2022-12-09T23:48:50.256Z,54.95
2022-12-09T23:53:56.274Z,60.53
2022-12-09T23:59:01.986Z,66.97
